sensor_id;sensor_type;location;lat;lon;timestamp;temperature;humidity
20315;DHT22;10315;50.958;13.080;2023-08-24T00:08:18;16.00;99.90
20315;DHT22;10315;50.958;13.080;2023-08-24T00:18:21;16.30;99.90
20315;DHT22;10315;50.958;13.080;2023-08-24T00:28:23;16.10;99.90
20315;DHT22;10315;50.958;13.080;2023-08-24T00:38:27;16.00;99.90
20315;DHT22;10315;50.958;13.080;2023-08-24T00:48:29;15.90;99.90
20315;DHT22;10315;50.958;13.080;2023-08-24T00:58:32;15.80;99.90
20315;DHT22;10315;50.958;13.080;2023-08-24T01:08:35;15.40;99.90
20315;DHT22;10315;50.958;13.080;2023-08-24T01:18:39;15.40;99.90
20315;DHT22;10315;50.958;13.080;2023-08-24T01:28:46;15.20;99.90
20315;DHT22;10315;50.958;13.080;2023-08-24T01:38:56;14.70;99.90
20315;DHT22;10315;50.958;13.080;2023-08-24T01:49:01;15.20;99.90
20315;DHT22;10315;50.958;13.080;2023-08-24T01:59:04;15.50;99.90
20315;DHT22;10315;50.958;13.080;2023-08-24T02:09:07;15.50;99.90
20315;DHT22;10315;50.958;13.080;2023-08-24T02:19:08;15.10;99.90
20315;DHT22;10315;50.958;13.080;2023-08-24T02:29:11;15.00;99.90
20315;DHT22;10315;50.958;13.080;2023-08-24T02:39:13;15.20;99.90
20315;DHT22;10315;50.958;13.080;2023-08-24T02:49:16;15.10;99.90
20315;DHT22;10315;50.958;13.080;2023-08-24T02:59:18;15.00;99.90
20315;DHT22;10315;50.958;13.080;2023-08-24T03:09:21;14.90;99.90
20315;DHT22;10315;50.958;13.080;2023-08-24T03:19:23;15.00;99.90
20315;DHT22;10315;50.958;13.080;2023-08-24T03:29:26;14.80;99.90
20315;DHT22;10315;50.958;13.080;2023-08-24T03:39:27;14.40;99.90
20315;DHT22;10315;50.958;13.080;2023-08-24T03:49:30;14.30;99.90
20315;DHT22;10315;50.958;13.080;2023-08-24T03:59:32;14.10;99.90
20315;DHT22;10315;50.958;13.080;2023-08-24T04:09:35;14.10;99.90
20315;DHT22;10315;50.958;13.080;2023-08-24T04:19:37;14.40;99.90
20315;DHT22;10315;50.958;13.080;2023-08-24T04:29:41;14.50;99.90
20315;DHT22;10315;50.958;13.080;2023-08-24T04:39:42;14.70;99.90
20315;DHT22;10315;50.958;13.080;2023-08-24T04:49:45;14.60;99.90
20315;DHT22;10315;50.958;13.080;2023-08-24T04:59:47;14.60;99.90
20315;DHT22;10315;50.958;13.080;2023-08-24T05:09:50;14.70;99.90
20315;DHT22;10315;50.958;13.080;2023-08-24T05:19:52;15.10;99.90
20315;DHT22;10315;50.958;13.080;2023-08-24T05:29:55;15.40;99.90
20315;DHT22;10315;50.958;13.080;2023-08-24T05:39:57;15.80;99.90
20315;DHT22;10315;50.958;13.080;2023-08-24T05:50:06;16.20;99.90
20315;DHT22;10315;50.958;13.080;2023-08-24T06:00:09;16.80;99.90
20315;DHT22;10315;50.958;13.080;2023-08-24T06:10:12;17.30;99.90
20315;DHT22;10315;50.958;13.080;2023-08-24T06:20:14;18.00;99.90
20315;DHT22;10315;50.958;13.080;2023-08-24T06:30:17;19.10;99.90
20315;DHT22;10315;50.958;13.080;2023-08-24T06:40:20;20.40;99.90
20315;DHT22;10315;50.958;13.080;2023-08-24T06:50:23;23.80;99.90
20315;DHT22;10315;50.958;13.080;2023-08-24T07:00:24;31.60;98.90
20315;DHT22;10315;50.958;13.080;2023-08-24T07:10:27;33.50;86.50
20315;DHT22;10315;50.958;13.080;2023-08-24T07:20:29;36.40;72.40
20315;DHT22;10315;50.958;13.080;2023-08-24T07:30:32;38.00;64.50
20315;DHT22;10315;50.958;13.080;2023-08-24T07:40:34;39.60;60.10
20315;DHT22;10315;50.958;13.080;2023-08-24T07:50:37;40.60;56.30
20315;DHT22;10315;50.958;13.080;2023-08-24T08:00:38;42.20;53.10
20315;DHT22;10315;50.958;13.080;2023-08-24T08:10:43;42.80;50.00
20315;DHT22;10315;50.958;13.080;2023-08-24T08:20:45;44.40;46.00
20315;DHT22;10315;50.958;13.080;2023-08-24T08:30:49;42.70;45.40
20315;DHT22;10315;50.958;13.080;2023-08-24T08:40:51;45.30;42.40
20315;DHT22;10315;50.958;13.080;2023-08-24T08:50:55;49.60;39.10
20315;DHT22;10315;50.958;13.080;2023-08-24T09:00:57;47.90;38.10
20315;DHT22;10315;50.958;13.080;2023-08-24T09:11:01;45.50;38.00
20315;DHT22;10315;50.958;13.080;2023-08-24T09:21:08;45.50;38.40
20315;DHT22;10315;50.958;13.080;2023-08-24T09:31:11;46.00;39.00
20315;DHT22;10315;50.958;13.080;2023-08-24T09:41:13;45.20;40.20
20315;DHT22;10315;50.958;13.080;2023-08-24T09:51:16;41.70;43.60
20315;DHT22;10315;50.958;13.080;2023-08-24T10:01:19;37.50;49.50
20315;DHT22;10315;50.958;13.080;2023-08-24T10:11:26;34.70;52.60
20315;DHT22;10315;50.958;13.080;2023-08-24T10:21:29;34.30;53.80
20315;DHT22;10315;50.958;13.080;2023-08-24T10:31:32;34.60;53.10
20315;DHT22;10315;50.958;13.080;2023-08-24T10:41:47;33.80;56.60
20315;DHT22;10315;50.958;13.080;2023-08-24T10:51:50;33.20;55.90
20315;DHT22;10315;50.958;13.080;2023-08-24T11:01:56;32.30;57.60
20315;DHT22;10315;50.958;13.080;2023-08-24T11:12:01;32.10;58.50
20315;DHT22;10315;50.958;13.080;2023-08-24T11:22:04;31.30;59.50
20315;DHT22;10315;50.958;13.080;2023-08-24T11:32:07;31.40;62.10
20315;DHT22;10315;50.958;13.080;2023-08-24T11:42:09;30.90;62.10
20315;DHT22;10315;50.958;13.080;2023-08-24T11:52:12;31.80;60.80
20315;DHT22;10315;50.958;13.080;2023-08-24T12:02:16;31.20;62.80
20315;DHT22;10315;50.958;13.080;2023-08-24T12:12:20;31.90;61.40
20315;DHT22;10315;50.958;13.080;2023-08-24T12:22:23;31.00;65.20
20315;DHT22;10315;50.958;13.080;2023-08-24T12:32:41;30.50;64.80
20315;DHT22;10315;50.958;13.080;2023-08-24T12:42:43;32.90;61.70
20315;DHT22;10315;50.958;13.080;2023-08-24T12:52:46;31.30;63.90
20315;DHT22;10315;50.958;13.080;2023-08-24T13:02:48;31.20;65.40
20315;DHT22;10315;50.958;13.080;2023-08-24T13:12:51;30.90;65.90
20315;DHT22;10315;50.958;13.080;2023-08-24T13:22:53;30.60;68.00
20315;DHT22;10315;50.958;13.080;2023-08-24T13:32:56;30.50;69.10
20315;DHT22;10315;50.958;13.080;2023-08-24T13:42:58;30.30;70.20
20315;DHT22;10315;50.958;13.080;2023-08-24T13:53:01;30.60;67.60
20315;DHT22;10315;50.958;13.080;2023-08-24T14:03:03;30.30;68.80
20315;DHT22;10315;50.958;13.080;2023-08-24T14:13:07;30.50;69.50
20315;DHT22;10315;50.958;13.080;2023-08-24T14:23:08;30.80;70.00
20315;DHT22;10315;50.958;13.080;2023-08-24T14:33:11;30.70;68.40
20315;DHT22;10315;50.958;13.080;2023-08-24T14:43:13;30.60;68.80
20315;DHT22;10315;50.958;13.080;2023-08-24T14:53:18;30.40;70.00
20315;DHT22;10315;50.958;13.080;2023-08-24T15:03:20;30.90;68.40
20315;DHT22;10315;50.958;13.080;2023-08-24T15:13:24;30.70;69.40
20315;DHT22;10315;50.958;13.080;2023-08-24T15:23:27;30.60;70.10
20315;DHT22;10315;50.958;13.080;2023-08-24T15:33:30;30.20;71.10
20315;DHT22;10315;50.958;13.080;2023-08-24T15:43:32;30.40;70.80
20315;DHT22;10315;50.958;13.080;2023-08-24T15:53:35;30.10;71.70
20315;DHT22;10315;50.958;13.080;2023-08-24T16:03:36;29.60;73.50
20315;DHT22;10315;50.958;13.080;2023-08-24T16:13:40;29.20;75.30
20315;DHT22;10315;50.958;13.080;2023-08-24T16:23:41;29.60;78.70
20315;DHT22;10315;50.958;13.080;2023-08-24T16:33:45;29.50;77.80
20315;DHT22;10315;50.958;13.080;2023-08-24T16:43:46;29.70;73.60
20315;DHT22;10315;50.958;13.080;2023-08-24T16:53:49;29.30;75.80
20315;DHT22;10315;50.958;13.080;2023-08-24T17:03:54;29.30;81.80
20315;DHT22;10315;50.958;13.080;2023-08-24T17:13:57;29.20;88.50
20315;DHT22;10315;50.958;13.080;2023-08-24T17:23:58;28.40;90.50
20315;DHT22;10315;50.958;13.080;2023-08-24T17:34:01;27.80;93.90
20315;DHT22;10315;50.958;13.080;2023-08-24T17:44:06;27.10;96.90
20315;DHT22;10315;50.958;13.080;2023-08-24T17:54:09;26.70;99.20
20315;DHT22;10315;50.958;13.080;2023-08-24T18:04:11;26.20;99.90
20315;DHT22;10315;50.958;13.080;2023-08-24T18:14:14;25.90;99.90
20315;DHT22;10315;50.958;13.080;2023-08-24T18:24:15;25.60;99.90
20315;DHT22;10315;50.958;13.080;2023-08-24T18:34:18;25.10;99.90
20315;DHT22;10315;50.958;13.080;2023-08-24T18:44:24;24.60;99.90
20315;DHT22;10315;50.958;13.080;2023-08-24T18:54:27;24.60;99.90
20315;DHT22;10315;50.958;13.080;2023-08-24T19:04:30;24.40;99.90
20315;DHT22;10315;50.958;13.080;2023-08-24T19:14:33;24.30;99.90
20315;DHT22;10315;50.958;13.080;2023-08-24T19:24:36;24.20;99.90
20315;DHT22;10315;50.958;13.080;2023-08-24T19:34:39;23.80;99.90
20315;DHT22;10315;50.958;13.080;2023-08-24T19:44:40;23.40;99.90
20315;DHT22;10315;50.958;13.080;2023-08-24T19:54:43;23.10;99.90
20315;DHT22;10315;50.958;13.080;2023-08-24T20:04:45;23.10;99.90
20315;DHT22;10315;50.958;13.080;2023-08-24T20:14:48;23.10;99.90
20315;DHT22;10315;50.958;13.080;2023-08-24T20:24:50;22.90;99.90
20315;DHT22;10315;50.958;13.080;2023-08-24T20:34:53;22.90;99.90
20315;DHT22;10315;50.958;13.080;2023-08-24T20:44:55;22.60;99.90
20315;DHT22;10315;50.958;13.080;2023-08-24T20:54:58;22.60;99.90
20315;DHT22;10315;50.958;13.080;2023-08-24T21:04:59;22.90;99.90
20315;DHT22;10315;50.958;13.080;2023-08-24T21:15:06;23.10;99.90
20315;DHT22;10315;50.958;13.080;2023-08-24T21:25:09;22.90;99.90
20315;DHT22;10315;50.958;13.080;2023-08-24T21:35:13;22.60;99.90
20315;DHT22;10315;50.958;13.080;2023-08-24T21:45:15;22.50;99.90
20315;DHT22;10315;50.958;13.080;2023-08-24T21:55:18;22.40;99.90
20315;DHT22;10315;50.958;13.080;2023-08-24T22:05:19;22.30;99.90
20315;DHT22;10315;50.958;13.080;2023-08-24T22:15:22;22.20;99.90
20315;DHT22;10315;50.958;13.080;2023-08-24T22:25:24;22.20;99.90
20315;DHT22;10315;50.958;13.080;2023-08-24T22:35:28;22.20;99.90
20315;DHT22;10315;50.958;13.080;2023-08-24T22:45:36;22.60;99.90
20315;DHT22;10315;50.958;13.080;2023-08-24T22:55:42;22.70;99.90
20315;DHT22;10315;50.958;13.080;2023-08-24T23:05:46;23.00;99.90
20315;DHT22;10315;50.958;13.080;2023-08-24T23:15:50;23.00;99.90
20315;DHT22;10315;50.958;13.080;2023-08-24T23:25:52;22.80;99.90
20315;DHT22;10315;50.958;13.080;2023-08-24T23:35:55;22.70;99.90
20315;DHT22;10315;50.958;13.080;2023-08-24T23:45:57;22.90;99.90
20315;DHT22;10315;50.958;13.080;2023-08-24T23:56:00;22.70;99.90
